RYR23YV LICJ-LIBD
Flight info
| Callsign | RYR23YV |
|---|---|
| Flight time | 0h 56m |
| Altitude | 38000 |
| Route | ROSAS DCT AMANO P748 BUMOK |
| Aircraft | B738/M-SDE3FGILRWY/SB1 |
Departure
| Time | 2026-04-20 20:43 |
|---|---|
| Airport | Falcone–Borsellino Airport (LICJ) |
Arrival
| Time | 2026-04-20 21:40 |
|---|---|
| Airport | Bari Karol Wojtyła International Airport (LIBD) |
| Time | Latitude | Longitude | Altitude | Speed | Heading |
|---|---|---|---|---|---|
| 2026-04-20 20:20 | 38.18554 | 13.10608 | 48 ft | 0 kts | 336° |
| 2026-04-20 20:34 | 38.18547 | 13.10612 | 52 ft | 4 kts | 335° |
| 2026-04-20 20:35 | 38.18523 | 13.10628 | 46 ft | 4 kts | 327° |
| 2026-04-20 20:35 | 38.18502 | 13.10649 | 49 ft | 4 kts | 307° |
| 2026-04-20 20:35 | 38.18493 | 13.10676 | 47 ft | 4 kts | 254° |
| 2026-04-20 20:35 | 38.18494 | 13.10681 | 47 ft | 0 kts | 246° |
| 2026-04-20 20:38 | 38.18493 | 13.10680 | 52 ft | 1 kts | 246° |
| 2026-04-20 20:38 | 38.18482 | 13.10647 | 51 ft | 10 kts | 246° |
| 2026-04-20 20:38 | 38.18434 | 13.10526 | 52 ft | 18 kts | 221° |
| 2026-04-20 20:38 | 38.18318 | 13.10444 | 52 ft | 20 kts | 245° |
| 2026-04-20 20:39 | 38.18220 | 13.10356 | 52 ft | 18 kts | 219° |
| 2026-04-20 20:39 | 38.18165 | 13.10219 | 52 ft | 17 kts | 247° |
| 2026-04-20 20:39 | 38.18119 | 13.10083 | 52 ft | 16 kts | 245° |
| 2026-04-20 20:39 | 38.18074 | 13.09952 | 48 ft | 16 kts | 246° |
| 2026-04-20 20:40 | 38.18031 | 13.09826 | 52 ft | 15 kts | 249° |
| 2026-04-20 20:40 | 38.17993 | 13.09705 | 51 ft | 15 kts | 242° |
| 2026-04-20 20:40 | 38.17953 | 13.09590 | 50 ft | 14 kts | 246° |
| 2026-04-20 20:40 | 38.17914 | 13.09479 | 49 ft | 13 kts | 246° |
| 2026-04-20 20:41 | 38.17878 | 13.09373 | 51 ft | 13 kts | 250° |
| 2026-04-20 20:41 | 38.17846 | 13.09270 | 52 ft | 13 kts | 248° |
| 2026-04-20 20:41 | 38.17812 | 13.09169 | 49 ft | 12 kts | 246° |
| 2026-04-20 20:41 | 38.17778 | 13.09068 | 50 ft | 13 kts | 246° |
| 2026-04-20 20:42 | 38.17737 | 13.08958 | 49 ft | 15 kts | 233° |
| 2026-04-20 20:42 | 38.17656 | 13.08870 | 52 ft | 16 kts | 215° |
| 2026-04-20 20:42 | 38.17564 | 13.08785 | 51 ft | 16 kts | 216° |
| 2026-04-20 20:42 | 38.17494 | 13.08817 | 52 ft | 15 kts | 87° |
| 2026-04-20 20:43 | 38.17517 | 13.08904 | 49 ft | 0 kts | 66° |
| 2026-04-20 20:43 | 38.17586 | 13.09106 | 52 ft | 76 kts | 66° |
| 2026-04-20 20:43 | 38.17934 | 13.10137 | 61 ft | 173 kts | 67° |
| 2026-04-20 20:43 | 38.18451 | 13.11707 | 916 ft | 203 kts | 67° |
| 2026-04-20 20:44 | 38.19005 | 13.13328 | 2404 ft | 192 kts | 69° |
| 2026-04-20 20:44 | 38.19544 | 13.14882 | 3681 ft | 198 kts | 67° |
| 2026-04-20 20:44 | 38.20131 | 13.16584 | 4185 ft | 226 kts | 68° |
| 2026-04-20 20:44 | 38.20816 | 13.18504 | 4629 ft | 248 kts | 63° |
| 2026-04-20 20:45 | 38.22005 | 13.20157 | 5183 ft | 269 kts | 31° |
| 2026-04-20 20:45 | 38.23758 | 13.21148 | 5980 ft | 281 kts | 22° |
| 2026-04-20 20:45 | 38.25583 | 13.22103 | 7044 ft | 284 kts | 21° |
| 2026-04-20 20:45 | 38.27412 | 13.23060 | 8172 ft | 285 kts | 21° |
| 2026-04-20 20:46 | 38.29255 | 13.24028 | 9261 ft | 288 kts | 21° |
| 2026-04-20 20:46 | 38.31094 | 13.24999 | 10287 ft | 292 kts | 20° |
| 2026-04-20 20:46 | 38.33032 | 13.26025 | 10803 ft | 316 kts | 20° |
| 2026-04-20 20:46 | 38.35140 | 13.27142 | 11258 ft | 336 kts | 20° |
| 2026-04-20 20:47 | 38.37322 | 13.28306 | 12140 ft | 342 kts | 20° |
| 2026-04-20 20:47 | 38.39527 | 13.29484 | 13146 ft | 345 kts | 20° |
| 2026-04-20 20:47 | 38.41752 | 13.30673 | 14078 ft | 349 kts | 19° |
| 2026-04-20 20:47 | 38.44010 | 13.31876 | 14932 ft | 353 kts | 19° |
| 2026-04-20 20:48 | 38.46290 | 13.33090 | 15784 ft | 357 kts | 19° |
| 2026-04-20 20:48 | 38.48595 | 13.34317 | 16648 ft | 361 kts | 19° |
| 2026-04-20 20:48 | 38.50929 | 13.35561 | 17495 ft | 366 kts | 19° |
| 2026-04-20 20:48 | 38.53290 | 13.36821 | 18326 ft | 370 kts | 19° |
| 2026-04-20 20:49 | 38.55677 | 13.38095 | 19041 ft | 374 kts | 19° |
| 2026-04-20 20:49 | 38.57274 | 13.38949 | 19514 ft | 377 kts | 19° |
| 2026-04-20 20:49 | 38.59708 | 13.40251 | 20232 ft | 381 kts | 19° |
| 2026-04-20 20:49 | 38.62165 | 13.41566 | 20927 ft | 386 kts | 19° |
| 2026-04-20 20:50 | 38.64657 | 13.42902 | 21616 ft | 390 kts | 19° |
| 2026-04-20 20:50 | 38.67170 | 13.44250 | 22289 ft | 394 kts | 19° |
| 2026-04-20 20:50 | 38.69714 | 13.45615 | 22953 ft | 399 kts | 19° |
| 2026-04-20 20:50 | 38.72286 | 13.46997 | 23603 ft | 403 kts | 19° |
| 2026-04-20 20:51 | 38.74881 | 13.48392 | 24157 ft | 406 kts | 19° |
| 2026-04-20 20:51 | 38.77499 | 13.49802 | 24752 ft | 409 kts | 19° |
| 2026-04-20 20:51 | 38.80122 | 13.51214 | 25365 ft | 410 kts | 19° |
| 2026-04-20 20:51 | 38.82761 | 13.52636 | 25925 ft | 413 kts | 19° |
| 2026-04-20 20:52 | 38.85418 | 13.54063 | 26461 ft | 415 kts | 18° |
| 2026-04-20 20:52 | 38.88126 | 13.55380 | 26975 ft | 417 kts | 15° |
| 2026-04-20 20:52 | 38.90874 | 13.56609 | 27501 ft | 419 kts | 14° |
| 2026-04-20 20:52 | 38.93646 | 13.57815 | 28017 ft | 422 kts | 14° |
| 2026-04-20 20:53 | 38.96431 | 13.59028 | 28519 ft | 424 kts | 14° |
| 2026-04-20 20:53 | 38.99234 | 13.60260 | 29011 ft | 427 kts | 14° |
| 2026-04-20 20:53 | 39.02051 | 13.61512 | 29508 ft | 430 kts | 14° |
| 2026-04-20 20:53 | 39.04887 | 13.62782 | 29963 ft | 433 kts | 15° |
| 2026-04-20 20:54 | 39.07738 | 13.64065 | 30352 ft | 435 kts | 15° |
| 2026-04-20 20:54 | 39.10606 | 13.65360 | 30698 ft | 438 kts | 15° |
| 2026-04-20 20:54 | 39.13491 | 13.66664 | 31040 ft | 441 kts | 14° |
| 2026-04-20 20:54 | 39.16395 | 13.67978 | 31380 ft | 444 kts | 14° |
| 2026-04-20 20:55 | 39.19312 | 13.69299 | 31768 ft | 444 kts | 14° |
| 2026-04-20 20:55 | 39.22219 | 13.70617 | 32284 ft | 443 kts | 14° |
| 2026-04-20 20:55 | 39.25118 | 13.71933 | 32790 ft | 441 kts | 14° |
| 2026-04-20 20:55 | 39.28009 | 13.73245 | 33249 ft | 440 kts | 14° |
| 2026-04-20 20:56 | 39.30857 | 13.74538 | 33666 ft | 440 kts | 14° |
| 2026-04-20 20:56 | 39.33746 | 13.75851 | 34099 ft | 439 kts | 14° |
| 2026-04-20 20:56 | 39.36628 | 13.77161 | 34485 ft | 439 kts | 14° |
| 2026-04-20 20:56 | 39.39492 | 13.78549 | 34821 ft | 443 kts | 19° |
| 2026-04-20 20:57 | 39.42202 | 13.80505 | 35139 ft | 450 kts | 29° |
| 2026-04-20 20:57 | 39.44675 | 13.83018 | 35532 ft | 457 kts | 38° |
| 2026-04-20 20:57 | 39.46886 | 13.85998 | 35897 ft | 459 kts | 42° |
| 2026-04-20 20:57 | 39.49029 | 13.89065 | 36212 ft | 460 kts | 43° |
| 2026-04-20 20:58 | 39.51163 | 13.92163 | 36512 ft | 461 kts | 43° |
| 2026-04-20 20:58 | 39.53297 | 13.95252 | 36856 ft | 461 kts | 43° |
| 2026-04-20 20:58 | 39.55444 | 13.98339 | 37198 ft | 460 kts | 42° |
| 2026-04-20 20:58 | 39.57596 | 14.01408 | 37502 ft | 460 kts | 42° |
| 2026-04-20 20:59 | 39.59752 | 14.04472 | 37816 ft | 461 kts | 42° |
| 2026-04-20 20:59 | 39.61916 | 14.07538 | 38096 ft | 462 kts | 42° |
| 2026-04-20 20:59 | 39.66296 | 14.13746 | 38047 ft | 467 kts | 42° |
| 2026-04-20 21:00 | 39.70641 | 14.19931 | 38026 ft | 459 kts | 42° |
| 2026-04-20 21:00 | 39.74938 | 14.26057 | 38051 ft | 459 kts | 41° |
| 2026-04-20 21:01 | 39.79241 | 14.32198 | 38041 ft | 460 kts | 42° |
| 2026-04-20 21:01 | 39.83549 | 14.38364 | 38038 ft | 461 kts | 42° |
| 2026-04-20 21:02 | 39.87859 | 14.44545 | 38036 ft | 461 kts | 42° |
| 2026-04-20 21:02 | 39.92169 | 14.50746 | 38039 ft | 462 kts | 42° |
| 2026-04-20 21:03 | 39.96475 | 14.56968 | 38038 ft | 463 kts | 42° |
| 2026-04-20 21:03 | 40.00785 | 14.63205 | 38044 ft | 463 kts | 42° |
| 2026-04-20 21:04 | 40.05079 | 14.69403 | 38040 ft | 463 kts | 42° |
| 2026-04-20 21:04 | 40.09403 | 14.75636 | 38039 ft | 463 kts | 42° |
| 2026-04-20 21:05 | 40.11592 | 14.78797 | 37927 ft | 464 kts | 42° |
| 2026-04-20 21:05 | 40.13734 | 14.81894 | 37475 ft | 464 kts | 42° |
| 2026-04-20 21:05 | 40.15888 | 14.84994 | 37089 ft | 457 kts | 41° |
| 2026-04-20 21:05 | 40.18044 | 14.88005 | 36749 ft | 450 kts | 40° |
| 2026-04-20 21:06 | 40.20189 | 14.90955 | 36357 ft | 445 kts | 40° |
| 2026-04-20 21:06 | 40.22318 | 14.93872 | 35989 ft | 441 kts | 40° |
| 2026-04-20 21:06 | 40.24420 | 14.96761 | 35619 ft | 436 kts | 41° |
| 2026-04-20 21:06 | 40.26500 | 14.99631 | 35248 ft | 433 kts | 41° |
| 2026-04-20 21:07 | 40.28562 | 15.02486 | 34872 ft | 429 kts | 41° |
| 2026-04-20 21:07 | 40.30604 | 15.05320 | 34507 ft | 426 kts | 41° |
| 2026-04-20 21:07 | 40.32629 | 15.08136 | 34129 ft | 423 kts | 41° |
| 2026-04-20 21:07 | 40.34641 | 15.10936 | 33739 ft | 420 kts | 41° |
| 2026-04-20 21:08 | 40.36636 | 15.13715 | 33354 ft | 417 kts | 41° |
| 2026-04-20 21:08 | 40.38613 | 15.16471 | 32980 ft | 413 kts | 41° |
| 2026-04-20 21:08 | 40.40571 | 15.19204 | 32608 ft | 409 kts | 41° |
| 2026-04-20 21:08 | 40.42512 | 15.21914 | 32297 ft | 404 kts | 41° |
| 2026-04-20 21:09 | 40.44416 | 15.24570 | 32094 ft | 397 kts | 41° |
| 2026-04-20 21:09 | 40.46306 | 15.27202 | 31754 ft | 394 kts | 41° |
| 2026-04-20 21:09 | 40.48177 | 15.29807 | 31428 ft | 391 kts | 41° |
| 2026-04-20 21:09 | 40.50040 | 15.32404 | 31080 ft | 389 kts | 41° |
| 2026-04-20 21:10 | 40.51886 | 15.34980 | 30748 ft | 386 kts | 41° |
| 2026-04-20 21:10 | 40.53716 | 15.37538 | 30439 ft | 383 kts | 41° |
| 2026-04-20 21:10 | 40.55536 | 15.40086 | 30051 ft | 380 kts | 41° |
| 2026-04-20 21:10 | 40.57335 | 15.42606 | 29712 ft | 376 kts | 41° |
| 2026-04-20 21:11 | 40.59121 | 15.45106 | 29331 ft | 374 kts | 41° |
| 2026-04-20 21:11 | 40.60864 | 15.47627 | 28993 ft | 372 kts | 45° |
| 2026-04-20 21:11 | 40.62426 | 15.50328 | 28682 ft | 370 kts | 49° |
| 2026-04-20 21:11 | 40.63907 | 15.53101 | 28324 ft | 369 kts | 50° |
| 2026-04-20 21:12 | 40.65369 | 15.55871 | 27997 ft | 368 kts | 50° |
| 2026-04-20 21:12 | 40.66850 | 15.58640 | 27659 ft | 374 kts | 49° |
| 2026-04-20 21:12 | 40.68381 | 15.61461 | 27316 ft | 383 kts | 49° |
| 2026-04-20 21:12 | 40.69938 | 15.64315 | 26953 ft | 383 kts | 49° |
| 2026-04-20 21:13 | 40.71488 | 15.67159 | 26585 ft | 380 kts | 49° |
| 2026-04-20 21:13 | 40.73027 | 15.69978 | 26223 ft | 377 kts | 49° |
| 2026-04-20 21:13 | 40.74554 | 15.72777 | 25874 ft | 374 kts | 49° |
| 2026-04-20 21:13 | 40.76068 | 15.75553 | 25506 ft | 372 kts | 49° |
| 2026-04-20 21:14 | 40.77572 | 15.78311 | 25168 ft | 369 kts | 49° |
| 2026-04-20 21:14 | 40.79063 | 15.81050 | 24828 ft | 367 kts | 49° |
| 2026-04-20 21:14 | 40.80547 | 15.83776 | 24484 ft | 365 kts | 49° |
| 2026-04-20 21:14 | 40.82024 | 15.86491 | 24144 ft | 363 kts | 49° |
| 2026-04-20 21:15 | 40.83492 | 15.89194 | 23796 ft | 362 kts | 49° |
| 2026-04-20 21:15 | 40.84955 | 15.91890 | 23420 ft | 360 kts | 49° |
| 2026-04-20 21:15 | 40.86410 | 15.94574 | 23040 ft | 358 kts | 49° |
| 2026-04-20 21:15 | 40.87854 | 15.97241 | 22694 ft | 356 kts | 49° |
| 2026-04-20 21:16 | 40.89267 | 15.99852 | 22356 ft | 353 kts | 49° |
| 2026-04-20 21:16 | 40.90689 | 16.02482 | 22010 ft | 351 kts | 49° |
| 2026-04-20 21:16 | 40.92102 | 16.05096 | 21669 ft | 348 kts | 49° |
| 2026-04-20 21:16 | 40.93506 | 16.07696 | 21331 ft | 346 kts | 49° |
| 2026-04-20 21:17 | 40.94732 | 16.10427 | 20974 ft | 351 kts | 66° |
| 2026-04-20 21:17 | 40.95149 | 16.13611 | 20676 ft | 355 kts | 88° |
| 2026-04-20 21:17 | 40.95069 | 16.16865 | 20373 ft | 353 kts | 91° |
| 2026-04-20 21:17 | 40.94933 | 16.20095 | 20041 ft | 351 kts | 91° |
| 2026-04-20 21:18 | 40.94792 | 16.23317 | 19709 ft | 350 kts | 91° |
| 2026-04-20 21:18 | 40.94658 | 16.26525 | 19388 ft | 349 kts | 91° |
| 2026-04-20 21:18 | 40.94535 | 16.29724 | 19056 ft | 348 kts | 91° |
| 2026-04-20 21:18 | 40.94417 | 16.32912 | 18730 ft | 347 kts | 90° |
| 2026-04-20 21:19 | 40.94304 | 16.36091 | 18410 ft | 346 kts | 91° |
| 2026-04-20 21:19 | 40.94192 | 16.39259 | 18060 ft | 344 kts | 91° |
| 2026-04-20 21:19 | 40.94080 | 16.42411 | 17714 ft | 342 kts | 91° |
| 2026-04-20 21:20 | 40.93857 | 16.48654 | 17059 ft | 338 kts | 91° |
| 2026-04-20 21:20 | 40.93755 | 16.51741 | 16738 ft | 335 kts | 88° |
| 2026-04-20 21:20 | 40.94133 | 16.54727 | 16401 ft | 328 kts | 67° |
| 2026-04-20 21:20 | 40.94930 | 16.57529 | 16111 ft | 324 kts | 65° |
| 2026-04-20 21:21 | 40.95749 | 16.60296 | 15802 ft | 322 kts | 65° |
| 2026-04-20 21:21 | 40.96563 | 16.63053 | 15490 ft | 321 kts | 66° |
| 2026-04-20 21:21 | 40.97365 | 16.65798 | 15185 ft | 319 kts | 66° |
| 2026-04-20 21:21 | 40.98155 | 16.68530 | 14886 ft | 318 kts | 66° |
| 2026-04-20 21:22 | 40.98938 | 16.71261 | 14570 ft | 317 kts | 66° |
| 2026-04-20 21:22 | 40.99715 | 16.73983 | 14261 ft | 315 kts | 66° |
| 2026-04-20 21:22 | 41.00486 | 16.76695 | 13957 ft | 314 kts | 67° |
| 2026-04-20 21:22 | 41.01254 | 16.79402 | 13628 ft | 313 kts | 67° |
| 2026-04-20 21:23 | 41.02017 | 16.82096 | 13296 ft | 312 kts | 67° |
| 2026-04-20 21:23 | 41.02776 | 16.84781 | 12980 ft | 310 kts | 67° |
| 2026-04-20 21:23 | 41.03530 | 16.87448 | 12675 ft | 308 kts | 67° |
| 2026-04-20 21:23 | 41.04279 | 16.90102 | 12366 ft | 306 kts | 67° |
| 2026-04-20 21:24 | 41.05021 | 16.92734 | 12136 ft | 302 kts | 67° |
| 2026-04-20 21:24 | 41.05745 | 16.95306 | 11994 ft | 295 kts | 67° |
| 2026-04-20 21:24 | 41.06452 | 16.97820 | 11858 ft | 288 kts | 67° |
| 2026-04-20 21:24 | 41.07142 | 17.00275 | 11723 ft | 281 kts | 67° |
| 2026-04-20 21:25 | 41.07807 | 17.02645 | 11603 ft | 274 kts | 67° |
| 2026-04-20 21:25 | 41.08474 | 17.05022 | 11428 ft | 270 kts | 67° |
| 2026-04-20 21:25 | 41.09130 | 17.07348 | 11178 ft | 269 kts | 67° |
| 2026-04-20 21:25 | 41.09784 | 17.09672 | 10930 ft | 269 kts | 68° |
| 2026-04-20 21:26 | 41.10435 | 17.11987 | 10681 ft | 268 kts | 68° |
| 2026-04-20 21:26 | 41.11077 | 17.14273 | 10433 ft | 268 kts | 68° |
| 2026-04-20 21:26 | 41.11723 | 17.16591 | 10170 ft | 268 kts | 68° |
| 2026-04-20 21:26 | 41.12366 | 17.18909 | 9914 ft | 268 kts | 68° |
| 2026-04-20 21:27 | 41.13011 | 17.21233 | 9639 ft | 268 kts | 68° |
| 2026-04-20 21:27 | 41.13650 | 17.23540 | 9402 ft | 263 kts | 68° |
| 2026-04-20 21:27 | 41.14272 | 17.25783 | 9128 ft | 255 kts | 68° |
| 2026-04-20 21:27 | 41.14874 | 17.27951 | 8880 ft | 245 kts | 68° |
| 2026-04-20 21:28 | 41.15450 | 17.30027 | 8640 ft | 235 kts | 68° |
| 2026-04-20 21:28 | 41.16013 | 17.32018 | 8422 ft | 225 kts | 64° |
| 2026-04-20 21:28 | 41.16966 | 17.33542 | 8223 ft | 208 kts | 27° |
| 2026-04-20 21:28 | 41.18276 | 17.34090 | 8069 ft | 195 kts | 1° |
| 2026-04-20 21:29 | 41.19608 | 17.33909 | 7885 ft | 192 kts | 340° |
| 2026-04-20 21:29 | 41.20866 | 17.33333 | 7697 ft | 190 kts | 336° |
| 2026-04-20 21:29 | 41.22105 | 17.32717 | 7500 ft | 190 kts | 336° |
| 2026-04-20 21:29 | 41.23342 | 17.32103 | 7308 ft | 190 kts | 336° |
| 2026-04-20 21:30 | 41.24573 | 17.31498 | 7157 ft | 186 kts | 336° |
| 2026-04-20 21:30 | 41.25771 | 17.30912 | 7066 ft | 181 kts | 336° |
| 2026-04-20 21:30 | 41.26847 | 17.30100 | 6968 ft | 180 kts | 309° |
| 2026-04-20 21:30 | 41.27314 | 17.28588 | 6806 ft | 182 kts | 271° |
| 2026-04-20 21:31 | 41.27053 | 17.26948 | 6646 ft | 182 kts | 252° |
| 2026-04-20 21:31 | 41.26619 | 17.25366 | 6439 ft | 183 kts | 250° |
| 2026-04-20 21:31 | 41.26172 | 17.23781 | 6246 ft | 183 kts | 250° |
| 2026-04-20 21:31 | 41.25725 | 17.22196 | 6042 ft | 183 kts | 250° |
| 2026-04-20 21:32 | 41.25282 | 17.20615 | 5853 ft | 182 kts | 250° |
| 2026-04-20 21:32 | 41.24844 | 17.19052 | 5651 ft | 180 kts | 250° |
| 2026-04-20 21:32 | 41.24410 | 17.17505 | 5473 ft | 177 kts | 251° |
| 2026-04-20 21:32 | 41.23984 | 17.15977 | 5289 ft | 175 kts | 251° |
| 2026-04-20 21:33 | 41.23562 | 17.14468 | 5121 ft | 173 kts | 251° |
| 2026-04-20 21:33 | 41.23146 | 17.12978 | 4945 ft | 171 kts | 251° |
| 2026-04-20 21:33 | 41.22732 | 17.11496 | 4775 ft | 170 kts | 251° |
| 2026-04-20 21:33 | 41.22320 | 17.10024 | 4597 ft | 170 kts | 251° |
| 2026-04-20 21:34 | 41.21915 | 17.08574 | 4425 ft | 170 kts | 251° |
| 2026-04-20 21:34 | 41.21501 | 17.07086 | 4236 ft | 169 kts | 252° |
| 2026-04-20 21:34 | 41.21145 | 17.05622 | 4080 ft | 169 kts | 254° |
| 2026-04-20 21:34 | 41.20793 | 17.04112 | 4005 ft | 168 kts | 253° |
| 2026-04-20 21:35 | 41.20452 | 17.02655 | 3969 ft | 167 kts | 254° |
| 2026-04-20 21:35 | 41.20097 | 17.01139 | 3778 ft | 171 kts | 254° |
| 2026-04-20 21:35 | 41.19864 | 17.00145 | 3625 ft | 169 kts | 254° |
| 2026-04-20 21:35 | 41.19516 | 16.98667 | 3410 ft | 166 kts | 254° |
| 2026-04-20 21:36 | 41.19066 | 16.96763 | 3120 ft | 161 kts | 254° |
| 2026-04-20 21:36 | 41.18731 | 16.95346 | 2906 ft | 161 kts | 254° |
| 2026-04-20 21:36 | 41.18395 | 16.93922 | 2694 ft | 162 kts | 254° |
| 2026-04-20 21:36 | 41.18059 | 16.92502 | 2476 ft | 160 kts | 253° |
| 2026-04-20 21:37 | 41.17721 | 16.91111 | 2269 ft | 157 kts | 253° |
| 2026-04-20 21:37 | 41.17492 | 16.90172 | 2125 ft | 159 kts | 253° |
| 2026-04-20 21:37 | 41.17153 | 16.88786 | 1900 ft | 159 kts | 253° |
| 2026-04-20 21:37 | 41.16843 | 16.87442 | 1712 ft | 148 kts | 257° |
| 2026-04-20 21:38 | 41.16617 | 16.86125 | 1501 ft | 143 kts | 256° |
| 2026-04-20 21:38 | 41.16310 | 16.84875 | 1248 ft | 142 kts | 252° |
| 2026-04-20 21:38 | 41.15996 | 16.83672 | 1118 ft | 140 kts | 250° |
| 2026-04-20 21:38 | 41.15638 | 16.82412 | 946 ft | 149 kts | 248° |
| 2026-04-20 21:39 | 41.15278 | 16.81141 | 816 ft | 146 kts | 249° |
| 2026-04-20 21:39 | 41.14928 | 16.79848 | 570 ft | 149 kts | 248° |
| 2026-04-20 21:39 | 41.14560 | 16.78571 | 354 ft | 144 kts | 248° |
| 2026-04-20 21:39 | 41.14223 | 16.77370 | 147 ft | 135 kts | 249° |
| 2026-04-20 21:40 | 41.13921 | 16.76306 | 126 ft | 106 kts | 249° |
| 2026-04-20 21:40 | 41.13749 | 16.75699 | 139 ft | 18 kts | 252° |
| 2026-04-20 21:40 | 41.13694 | 16.75578 | 139 ft | 6 kts | 176° |
| 2026-04-20 21:40 | 41.13681 | 16.75627 | 139 ft | 6 kts | 97° |
| 2026-04-20 21:41 | 41.13673 | 16.75681 | 139 ft | 6 kts | 103° |
| 2026-04-20 21:41 | 41.13664 | 16.75734 | 140 ft | 6 kts | 103° |
| 2026-04-20 21:41 | 41.13654 | 16.75788 | 140 ft | 7 kts | 103° |
| 2026-04-20 21:41 | 41.13641 | 16.75861 | 137 ft | 11 kts | 103° |
| 2026-04-20 21:42 | 41.13633 | 16.75911 | 136 ft | 5 kts | 97° |
| 2026-04-20 21:42 | 41.13633 | 16.75944 | 135 ft | 4 kts | 86° |
| 2026-04-20 21:42 | 41.13636 | 16.75991 | 135 ft | 7 kts | 93° |
| 2026-04-20 21:42 | 41.13609 | 16.76057 | 135 ft | 10 kts | 136° |
| 2026-04-20 21:43 | 41.13556 | 16.76131 | 135 ft | 12 kts | 115° |
| 2026-04-20 21:43 | 41.13573 | 16.76235 | 135 ft | 12 kts | 69° |
| 2026-04-20 21:43 | 41.13602 | 16.76336 | 135 ft | 12 kts | 68° |
| 2026-04-20 21:43 | 41.13630 | 16.76434 | 135 ft | 9 kts | 70° |
| 2026-04-20 21:44 | 41.13629 | 16.76485 | 135 ft | 4 kts | 145° |
| 2026-04-20 21:44 | 41.13600 | 16.76501 | 135 ft | 5 kts | 159° |
| 2026-04-20 21:44 | 41.13583 | 16.76509 | 135 ft | 1 kts | 159° |
| 2026-04-20 21:44 | 41.13576 | 16.76513 | 135 ft | 1 kts | 159° |
| 2026-04-20 21:45 | 41.13574 | 16.76514 | 135 ft | 0 kts | 159° |